Time;durP1;ratioP1;P1;durP2;ratioP2;P2;SDS_P1;SDS_P2;PMS_P1;PMS_P2;Temp;Humidity;BMP_temperature;BMP_pressure;BME280_temperature;BME280_humidity;BME280_pressure;Samples;Min_cycle;Max_cycle;Signal;HPM_P1;HPM_P2
2024/04/02 00:01:27;;;;;;;18.70;5.45;;;;;;;;;;6288525;28;20080;-73
2024/04/02 00:04:28;;;;;;;19.05;5.22;;;;;;;;;;6275495;28;20141;-73
2024/04/02 00:07:30;;;;;;;16.00;5.57;;;;;;;;;;6271523;28;20036;-73
2024/04/02 00:10:32;;;;;;;17.02;4.15;;;;;;;;;;6289766;28;20078;-73
2024/04/02 00:13:34;;;;;;;17.70;5.90;;;;;;;;;;6270810;28;20048;-73
2024/04/02 00:16:35;;;;;;;21.75;4.70;;;;;;;;;;6271876;28;20492;-73
2024/04/02 00:19:36;;;;;;;16.35;6.35;;;;;;;;;;6289213;28;20101;-73
2024/04/02 00:22:37;;;;;;;20.42;3.88;;;;;;;;;;6291539;28;20483;-73
2024/04/02 00:25:39;;;;;;;19.58;5.60;;;;;;;;;;6293079;28;20043;-73
2024/04/02 00:28:41;;;;;;;24.73;6.25;;;;;;;;;;6272511;28;20105;-73
2024/04/02 00:31:42;;;;;;;21.50;5.60;;;;;;;;;;6290265;28;20048;-73
2024/04/02 00:34:43;;;;;;;21.30;5.18;;;;;;;;;;6273392;28;20145;-73
2024/04/02 00:37:44;;;;;;;23.25;6.45;;;;;;;;;;6279849;28;20132;-73
2024/04/02 00:40:46;;;;;;;19.23;3.85;;;;;;;;;;6273356;28;20129;-74
2024/04/02 00:43:47;;;;;;;14.88;6.22;;;;;;;;;;6289306;28;20249;-74
2024/04/02 00:46:48;;;;;;;16.15;5.35;;;;;;;;;;6254005;28;20059;-73
2024/04/02 00:49:49;;;;;;;18.23;3.80;;;;;;;;;;6238442;28;20040;-73
2024/04/02 00:52:50;;;;;;;24.73;6.60;;;;;;;;;;6274612;28;20565;-73
2024/04/02 00:55:52;;;;;;;25.02;6.85;;;;;;;;;;6257323;28;20055;-73
2024/04/02 00:58:55;;;;;;;19.48;4.70;;;;;;;;;;6271855;28;20048;-73
2024/04/02 01:01:56;;;;;;;21.27;6.82;;;;;;;;;;6257975;28;20059;-73
2024/04/02 01:04:57;;;;;;;20.10;5.70;;;;;;;;;;6293418;28;20171;-73
2024/04/02 01:07:59;;;;;;;18.83;5.82;;;;;;;;;;6298338;28;20160;-73
2024/04/02 01:11:01;;;;;;;19.65;5.72;;;;;;;;;;6297720;28;20111;-73
2024/04/02 01:14:03;;;;;;;19.80;4.22;;;;;;;;;;6293280;28;20186;-73
2024/04/02 01:17:04;;;;;;;15.82;5.32;;;;;;;;;;6300528;28;20071;-73
2024/04/02 01:20:06;;;;;;;16.20;5.40;;;;;;;;;;6287596;28;20048;-72
2024/04/02 01:23:10;;;;;;;24.52;6.50;;;;;;;;;;6315163;28;20403;-73
2024/04/02 01:26:11;;;;;;;24.23;6.15;;;;;;;;;;6275895;28;20052;-73
2024/04/02 01:29:14;;;;;;;27.23;5.78;;;;;;;;;;6291793;28;20036;-73
2024/04/02 01:32:15;;;;;;;25.02;6.50;;;;;;;;;;6281573;28;20097;-73
2024/04/02 01:35:17;;;;;;;24.20;4.93;;;;;;;;;;6277265;28;20483;-72
2024/04/02 01:38:18;;;;;;;20.33;6.60;;;;;;;;;;6258600;28;20040;-72
2024/04/02 01:41:19;;;;;;;24.63;4.90;;;;;;;;;;6278120;28;20102;-72
2024/04/02 01:44:20;;;;;;;21.73;6.45;;;;;;;;;;6292517;28;20067;-72
2024/04/02 01:47:21;;;;;;;17.90;6.70;;;;;;;;;;6289145;28;20024;-72
2024/04/02 01:50:22;;;;;;;21.17;6.70;;;;;;;;;;6259934;28;20056;-73
2024/04/02 01:53:24;;;;;;;14.82;6.80;;;;;;;;;;6274423;28;20131;-73
2024/04/02 01:56:25;;;;;;;20.58;6.38;;;;;;;;;;6278864;28;20047;-73
2024/04/02 01:59:26;;;;;;;19.02;4.68;;;;;;;;;;6251100;28;20097;-73
2024/04/02 02:02:27;;;;;;;20.38;5.90;;;;;;;;;;6246623;28;20044;-72
2024/04/02 02:05:28;;;;;;;17.98;5.30;;;;;;;;;;6276768;28;20125;-73
2024/04/02 02:08:30;;;;;;;21.77;4.70;;;;;;;;;;6272765;28;20040;-73
2024/04/02 02:11:31;;;;;;;11.52;4.68;;;;;;;;;;6267617;28;20052;-73
2024/04/02 02:14:33;;;;;;;11.63;4.72;;;;;;;;;;6273397;28;20043;-73
2024/04/02 02:17:34;;;;;;;10.45;4.05;;;;;;;;;;6292184;28;20562;-73
2024/04/02 02:20:35;;;;;;;12.07;4.00;;;;;;;;;;6259624;28;20097;-73
2024/04/02 02:23:39;;;;;;;15.55;4.22;;;;;;;;;;6281118;28;20921;-73
2024/04/02 02:26:40;;;;;;;15.13;6.40;;;;;;;;;;6296076;28;20036;-73
2024/04/02 02:29:43;;;;;;;14.10;5.85;;;;;;;;;;6291793;28;20089;-73
2024/04/02 02:32:44;;;;;;;16.10;5.10;;;;;;;;;;6287989;28;20048;-74
2024/04/02 02:35:53;;;;;;;12.45;5.65;;;;;;;;;;6254948;28;20912;-74
2024/04/02 02:38:55;;;;;;;10.18;3.20;;;;;;;;;;6290149;28;20036;-74
2024/04/02 02:41:56;;;;;;;16.90;4.70;;;;;;;;;;6275909;28;20059;-74
2024/04/02 02:44:57;;;;;;;10.88;3.65;;;;;;;;;;6292473;28;20035;-74
2024/04/02 02:47:58;;;;;;;9.65;4.60;;;;;;;;;;6276098;28;20048;-74
2024/04/02 02:50:59;;;;;;;18.88;7.28;;;;;;;;;;6277091;28;20055;-74
2024/04/02 02:54:01;;;;;;;14.52;5.18;;;;;;;;;;6228998;28;20071;-74
2024/04/02 02:57:02;;;;;;;11.05;5.20;;;;;;;;;;6295915;28;20056;-74
2024/04/02 03:00:07;;;;;;;19.48;5.60;;;;;;;;;;6289144;28;20044;-74
2024/04/02 03:03:08;;;;;;;12.90;4.35;;;;;;;;;;6275255;28;20559;-74
2024/04/02 03:06:10;;;;;;;9.40;2.05;;;;;;;;;;6273623;28;20756;-75
2024/04/02 03:09:11;;;;;;;17.35;4.85;;;;;;;;;;6287871;28;20036;-74
2024/04/02 03:12:11;;;;;;;23.00;5.93;;;;;;;;;;6276263;28;20128;-74
2024/04/02 03:15:13;;;;;;;11.57;5.03;;;;;;;;;;6258782;28;20051;-74
2024/04/02 03:18:14;;;;;;;22.48;2.38;;;;;;;;;;6260987;28;20059;-74
2024/04/02 03:21:15;;;;;;;14.25;4.47;;;;;;;;;;6273064;28;20047;-74
2024/04/02 03:24:16;;;;;;;14.57;2.97;;;;;;;;;;6260804;28;20058;-74
2024/04/02 03:27:17;;;;;;;10.45;2.05;;;;;;;;;;6315633;28;20044;-74
2024/04/02 03:30:19;;;;;;;23.65;2.85;;;;;;;;;;6273609;28;20067;-75
2024/04/02 03:33:20;;;;;;;15.95;4.38;;;;;;;;;;6292441;28;20036;-74
2024/04/02 03:36:21;;;;;;;20.52;5.78;;;;;;;;;;6279711;28;20047;-74
2024/04/02 03:39:23;;;;;;;17.17;4.35;;;;;;;;;;6275805;28;20040;-74
2024/04/02 03:42:24;;;;;;;21.90;5.05;;;;;;;;;;6278162;28;20051;-75
2024/04/02 03:45:26;;;;;;;12.40;4.47;;;;;;;;;;6285187;28;20057;-75
2024/04/02 03:48:27;;;;;;;19.50;3.72;;;;;;;;;;6292330;28;20209;-74
2024/04/02 03:51:28;;;;;;;17.60;5.40;;;;;;;;;;6299922;28;20059;-74
2024/04/02 03:54:29;;;;;;;18.50;3.05;;;;;;;;;;6271455;28;20048;-75
2024/04/02 03:57:31;;;;;;;20.60;4.97;;;;;;;;;;6261427;28;20139;-75
2024/04/02 04:00:32;;;;;;;21.33;4.47;;;;;;;;;;6262428;28;20036;-74
2024/04/02 04:03:33;;;;;;;10.25;4.75;;;;;;;;;;6256646;28;20133;-74
2024/04/02 04:06:34;;;;;;;16.15;3.03;;;;;;;;;;6306960;28;20040;-73
2024/04/02 04:09:36;;;;;;;13.20;4.18;;;;;;;;;;6278530;28;20044;-74
2024/04/02 04:12:37;;;;;;;17.00;3.90;;;;;;;;;;6254720;28;20126;-74
2024/04/02 04:15:38;;;;;;;17.75;5.45;;;;;;;;;;6258395;28;20721;-73
2024/04/02 04:18:39;;;;;;;11.95;4.60;;;;;;;;;;6271823;28;20063;-73
2024/04/02 04:21:41;;;;;;;13.27;4.18;;;;;;;;;;6319642;27;20051;-73
2024/04/02 04:24:42;;;;;;;19.08;4.93;;;;;;;;;;6271487;28;20052;-74
2024/04/02 04:27:46;;;;;;;14.68;4.68;;;;;;;;;;6298626;28;20071;-73
2024/04/02 04:30:52;;;;;;;15.77;4.80;;;;;;;;;;6266685;28;20052;-72
2024/04/02 04:33:54;;;;;;;18.65;4.63;;;;;;;;;;6295456;28;20079;-72
2024/04/02 04:36:55;;;;;;;17.13;5.97;;;;;;;;;;6289251;28;20092;-74
2024/04/02 04:39:56;;;;;;;15.93;6.30;;;;;;;;;;6267270;28;20636;-73
2024/04/02 04:42:57;;;;;;;23.73;5.05;;;;;;;;;;6255483;28;20527;-73
2024/04/02 04:46:03;;;;;;;17.27;2.50;;;;;;;;;;6286338;28;20055;-73
2024/04/02 04:49:05;;;;;;;23.92;6.57;;;;;;;;;;6271071;28;20105;-72
2024/04/02 04:52:07;;;;;;;13.75;5.00;;;;;;;;;;6290795;28;20062;-73
2024/04/02 04:55:09;;;;;;;12.60;3.08;;;;;;;;;;6289820;28;20689;-73
2024/04/02 04:58:10;;;;;;;28.90;6.47;;;;;;;;;;6263138;28;20033;-73
2024/04/02 05:01:11;;;;;;;21.48;5.43;;;;;;;;;;6271187;28;20037;-74
2024/04/02 05:04:12;;;;;;;24.77;3.63;;;;;;;;;;6278799;28;20535;-73
2024/04/02 05:07:24;;;;;;;13.00;4.45;;;;;;;;;;6284053;28;20055;-73
2024/04/02 05:10:25;;;;;;;20.00;3.80;;;;;;;;;;6249996;28;20505;-73
2024/04/02 05:13:27;;;;;;;18.05;4.90;;;;;;;;;;6265136;28;20082;-73
2024/04/02 05:16:29;;;;;;;20.58;4.53;;;;;;;;;;6293006;28;20044;-72
2024/04/02 05:19:30;;;;;;;20.25;5.28;;;;;;;;;;6262657;28;20036;-74
2024/04/02 05:22:32;;;;;;;18.33;5.13;;;;;;;;;;6255446;28;20044;-73
2024/04/02 05:25:33;;;;;;;16.27;3.42;;;;;;;;;;6285629;28;20667;-72
2024/04/02 05:28:35;;;;;;;19.40;3.05;;;;;;;;;;6265380;28;20052;-73
2024/04/02 05:31:36;;;;;;;16.20;5.20;;;;;;;;;;6289989;28;20135;-73
2024/04/02 05:34:37;;;;;;;24.02;6.22;;;;;;;;;;6284068;28;20067;-73
2024/04/02 05:37:38;;;;;;;18.17;5.75;;;;;;;;;;6291551;28;20059;-73
2024/04/02 05:40:40;;;;;;;21.75;3.22;;;;;;;;;;6260154;28;20047;-73
2024/04/02 05:43:41;;;;;;;29.10;6.18;;;;;;;;;;6265184;28;20052;-74
2024/04/02 05:46:42;;;;;;;18.83;4.93;;;;;;;;;;6270841;28;20761;-74
2024/04/02 05:49:43;;;;;;;28.05;5.85;;;;;;;;;;6274850;28;20056;-73
2024/04/02 05:52:44;;;;;;;19.70;5.03;;;;;;;;;;6287836;28;20068;-73
2024/04/02 05:55:45;;;;;;;20.10;5.63;;;;;;;;;;6274060;28;20036;-73
2024/04/02 05:58:47;;;;;;;20.15;6.60;;;;;;;;;;6292456;28;20044;-73
2024/04/02 06:01:48;;;;;;;17.58;5.05;;;;;;;;;;6305244;28;20079;-74
2024/04/02 06:04:49;;;;;;;20.38;6.07;;;;;;;;;;6291244;28;20040;-73
2024/04/02 06:07:54;;;;;;;21.15;5.40;;;;;;;;;;6277669;28;20523;-73
2024/04/02 06:10:55;;;;;;;24.40;5.43;;;;;;;;;;6273170;28;20048;-73
2024/04/02 06:13:56;;;;;;;14.63;4.85;;;;;;;;;;6312314;28;20051;-74
2024/04/02 06:16:59;;;;;;;18.25;4.95;;;;;;;;;;6276668;28;20159;-74
2024/04/02 06:20:00;;;;;;;27.08;6.90;;;;;;;;;;6252535;28;20040;-73
2024/04/02 06:23:01;;;;;;;15.95;5.05;;;;;;;;;;6292470;28;20032;-73
2024/04/02 06:26:04;;;;;;;17.70;5.28;;;;;;;;;;6292547;28;20047;-73
2024/04/02 06:29:05;;;;;;;25.48;5.38;;;;;;;;;;6276137;28;20051;-74
2024/04/02 06:32:06;;;;;;;19.00;5.55;;;;;;;;;;6279432;28;20060;-73
2024/04/02 06:35:08;;;;;;;22.02;5.80;;;;;;;;;;6304653;28;20047;-73
2024/04/02 06:38:09;;;;;;;13.63;5.80;;;;;;;;;;6295496;28;20036;-74
2024/04/02 06:41:10;;;;;;;16.98;6.22;;;;;;;;;;6255341;28;20059;-73
2024/04/02 06:44:12;;;;;;;15.32;5.50;;;;;;;;;;6278034;28;20905;-73
2024/04/02 06:47:13;;;;;;;23.52;5.43;;;;;;;;;;6250476;28;20188;-73
2024/04/02 06:50:15;;;;;;;17.85;6.15;;;;;;;;;;6290718;28;20044;-73
2024/04/02 06:53:16;;;;;;;18.80;5.28;;;;;;;;;;6258174;28;20083;-72
2024/04/02 06:56:17;;;;;;;14.10;6.07;;;;;;;;;;6279635;28;20049;-73
2024/04/02 06:59:18;;;;;;;19.48;7.03;;;;;;;;;;6263942;28;20039;-72
2024/04/02 07:02:20;;;;;;;17.13;5.20;;;;;;;;;;6279665;28;20624;-74
2024/04/02 07:05:21;;;;;;;18.77;5.82;;;;;;;;;;6260414;28;20052;-74
2024/04/02 07:08:25;;;;;;;20.23;8.68;;;;;;;;;;6304375;28;20503;-74
2024/04/02 07:11:26;;;;;;;11.77;6.15;;;;;;;;;;6310540;28;20064;-74
2024/04/02 07:14:27;;;;;;;16.98;5.32;;;;;;;;;;6281529;28;20136;-74
2024/04/02 07:17:30;;;;;;;25.65;7.05;;;;;;;;;;6290564;28;20074;-73
2024/04/02 07:20:31;;;;;;;15.18;5.20;;;;;;;;;;6298466;28;20567;-74
2024/04/02 07:23:33;;;;;;;12.43;4.50;;;;;;;;;;6290483;28;20040;-73
2024/04/02 07:26:34;;;;;;;19.15;5.35;;;;;;;;;;6258443;28;20063;-74
2024/04/02 07:29:35;;;;;;;13.93;7.03;;;;;;;;;;6268446;28;20048;-74
2024/04/02 07:32:36;;;;;;;17.40;6.03;;;;;;;;;;6254630;28;20111;-74
2024/04/02 07:35:38;;;;;;;23.38;6.00;;;;;;;;;;6300724;28;20051;-74
2024/04/02 07:38:39;;;;;;;19.00;7.07;;;;;;;;;;6289831;28;20032;-74
2024/04/02 07:41:40;;;;;;;16.17;5.97;;;;;;;;;;6293640;28;20052;-74
2024/04/02 07:44:42;;;;;;;18.95;6.97;;;;;;;;;;6292976;28;20533;-74
2024/04/02 07:47:46;;;;;;;15.60;4.53;;;;;;;;;;6274223;28;20514;-74
2024/04/02 07:50:49;;;;;;;17.40;3.97;;;;;;;;;;6273649;28;20517;-74
2024/04/02 07:53:50;;;;;;;15.60;5.47;;;;;;;;;;6287138;28;20040;-74
2024/04/02 07:56:53;;;;;;;10.82;5.03;;;;;;;;;;6277343;28;20181;-73
2024/04/02 07:59:54;;;;;;;14.55;4.80;;;;;;;;;;6257009;28;20078;-74
2024/04/02 08:02:55;;;;;;;13.07;6.18;;;;;;;;;;6275524;28;20065;-74
2024/04/02 08:05:58;;;;;;;15.52;4.80;;;;;;;;;;6252508;28;20047;-74
2024/04/02 08:08:59;;;;;;;17.77;6.47;;;;;;;;;;6271955;28;20055;-74
2024/04/02 08:12:00;;;;;;;14.65;6.10;;;;;;;;;;6288746;28;20059;-74
2024/04/02 08:15:02;;;;;;;17.52;5.75;;;;;;;;;;6274530;28;20048;-74
2024/04/02 08:18:05;;;;;;;19.65;7.15;;;;;;;;;;6259349;28;20097;-74
2024/04/02 08:21:07;;;;;;;14.00;6.38;;;;;;;;;;6292237;28;20050;-74
2024/04/02 08:24:10;;;;;;;21.80;6.95;;;;;;;;;;6274160;28;20577;-75
2024/04/02 08:27:11;;;;;;;16.25;6.72;;;;;;;;;;6291851;28;20052;-74
2024/04/02 08:30:13;;;;;;;20.88;7.03;;;;;;;;;;6292322;28;20055;-74
2024/04/02 08:33:14;;;;;;;20.27;5.95;;;;;;;;;;6291820;28;20051;-74
2024/04/02 08:36:15;;;;;;;16.10;9.05;;;;;;;;;;6289811;28;20048;-74
2024/04/02 08:39:17;;;;;;;14.82;5.13;;;;;;;;;;6277161;28;20553;-74
2024/04/02 08:42:19;;;;;;;14.13;7.72;;;;;;;;;;6289619;28;20736;-72
2024/04/02 08:45:20;;;;;;;19.90;5.68;;;;;;;;;;6269009;28;20515;-73
2024/04/02 08:48:22;;;;;;;17.25;5.68;;;;;;;;;;6272262;28;20047;-73
2024/04/02 08:51:23;;;;;;;14.38;7.10;;;;;;;;;;6273414;28;20051;-73
2024/04/02 08:54:24;;;;;;;17.23;4.30;;;;;;;;;;6272439;28;20051;-73
2024/04/02 08:57:26;;;;;;;25.08;5.47;;;;;;;;;;6284287;28;20139;-73
2024/04/02 09:00:27;;;;;;;12.75;5.72;;;;;;;;;;6292604;28;20518;-73
2024/04/02 09:03:29;;;;;;;16.15;3.45;;;;;;;;;;6270434;28;20818;-73
2024/04/02 09:06:30;;;;;;;21.60;4.95;;;;;;;;;;6292315;28;20040;-73
2024/04/02 09:09:31;;;;;;;14.27;3.88;;;;;;;;;;6272147;28;20820;-74
2024/04/02 09:12:32;;;;;;;18.38;2.20;;;;;;;;;;6271417;28;20591;-74
2024/04/02 09:15:35;;;;;;;14.43;4.35;;;;;;;;;;6298027;28;20047;-74
2024/04/02 09:18:37;;;;;;;28.48;7.13;;;;;;;;;;6283913;28;20043;-74
2024/04/02 09:21:38;;;;;;;22.70;2.70;;;;;;;;;;6274888;28;20066;-73
2024/04/02 09:24:39;;;;;;;14.73;6.00;;;;;;;;;;6295184;28;20036;-74
2024/04/02 09:27:42;;;;;;;16.60;4.53;;;;;;;;;;6273153;28;20043;-73
2024/04/02 09:30:43;;;;;;;23.92;5.53;;;;;;;;;;6266491;28;20733;-74
2024/04/02 09:33:49;;;;;;;9.65;3.15;;;;;;;;;;6275936;28;20048;-76
2024/04/02 09:37:01;;;;;;;12.18;4.25;;;;;;;;;;6255559;28;20044;-75
2024/04/02 09:40:03;;;;;;;10.73;4.18;;;;;;;;;;6254817;28;20562;-76
2024/04/02 09:43:08;;;;;;;10.18;3.70;;;;;;;;;;6260568;28;20186;-75
2024/04/02 09:46:10;;;;;;;4.72;2.83;;;;;;;;;;6260083;28;20060;-75
2024/04/02 09:49:11;;;;;;;7.20;3.35;;;;;;;;;;6261876;28;20511;-76
2024/04/02 09:52:13;;;;;;;6.75;2.83;;;;;;;;;;6260683;28;20051;-75
2024/04/02 09:55:15;;;;;;;6.63;3.53;;;;;;;;;;6260302;28;20574;-75
2024/04/02 09:58:16;;;;;;;4.53;2.42;;;;;;;;;;6275449;28;20115;-76
2024/04/02 10:01:21;;;;;;;10.85;2.88;;;;;;;;;;6259721;28;20043;-75
2024/04/02 10:04:23;;;;;;;4.45;2.45;;;;;;;;;;6278412;28;20059;-75
2024/04/02 10:07:29;;;;;;;5.90;3.80;;;;;;;;;;6276957;28;20486;-76
2024/04/02 10:10:30;;;;;;;5.18;3.33;;;;;;;;;;6294120;28;20073;-76
2024/04/02 10:13:38;;;;;;;9.45;3.47;;;;;;;;;;6260383;28;20206;-74
2024/04/02 10:16:41;;;;;;;4.88;2.28;;;;;;;;;;6257380;28;20059;-75
2024/04/02 10:19:48;;;;;;;11.00;1.65;;;;;;;;;;6307533;28;20044;-75
2024/04/02 10:22:53;;;;;;;8.65;2.67;;;;;;;;;;6278030;28;20123;-75
2024/04/02 10:25:55;;;;;;;7.25;3.58;;;;;;;;;;6294211;28;20056;-75
2024/04/02 10:28:57;;;;;;;5.13;4.57;;;;;;;;;;6276311;28;20047;-75
2024/04/02 10:32:00;;;;;;;8.15;3.15;;;;;;;;;;6276008;28;20067;-75
2024/04/02 10:35:01;;;;;;;4.88;1.73;;;;;;;;;;6268738;28;20425;-75
2024/04/02 10:38:02;;;;;;;8.35;3.22;;;;;;;;;;6255702;28;20048;-75
2024/04/02 10:41:05;;;;;;;5.63;2.55;;;;;;;;;;6276303;28;20832;-74
2024/04/02 10:44:06;;;;;;;8.10;3.10;;;;;;;;;;6277742;28;20106;-74
2024/04/02 10:47:16;;;;;;;5.68;3.80;;;;;;;;;;6301917;28;20040;-75
2024/04/02 10:50:19;;;;;;;4.63;3.00;;;;;;;;;;6296798;28;20765;-75
2024/04/02 10:53:20;;;;;;;5.47;3.03;;;;;;;;;;6253057;28;20762;-75
2024/04/02 10:56:21;;;;;;;4.40;2.60;;;;;;;;;;6292310;28;20540;-75
2024/04/02 10:59:22;;;;;;;4.65;3.42;;;;;;;;;;6288336;28;20044;-75
2024/04/02 11:02:23;;;;;;;3.97;3.50;;;;;;;;;;6242483;28;20056;-75
2024/04/02 11:05:25;;;;;;;5.22;2.72;;;;;;;;;;6290820;28;20082;-74
2024/04/02 11:08:26;;;;;;;5.05;2.42;;;;;;;;;;6253546;28;20055;-75
2024/04/02 11:11:27;;;;;;;4.72;2.33;;;;;;;;;;6294679;28;20048;-75
2024/04/02 11:14:28;;;;;;;7.03;1.33;;;;;;;;;;6276884;28;20120;-74
2024/04/02 11:17:29;;;;;;;5.05;3.95;;;;;;;;;;6289953;28;20054;-75
2024/04/02 11:20:31;;;;;;;7.28;3.40;;;;;;;;;;6280360;28;20056;-75
2024/04/02 11:26:52;;;;;;;7.07;3.55;;;;;;;;;;6278980;28;20110;-75
2024/04/02 11:29:53;;;;;;;7.20;3.05;;;;;;;;;;6291948;28;20200;-74
2024/04/02 11:32:54;;;;;;;5.35;3.25;;;;;;;;;;6275088;28;20036;-75
2024/04/02 11:35:56;;;;;;;4.95;2.83;;;;;;;;;;6306504;28;20100;-75
2024/04/02 11:38:57;;;;;;;3.45;2.58;;;;;;;;;;6285101;28;20029;-74
2024/04/02 11:41:59;;;;;;;3.30;2.25;;;;;;;;;;6294743;28;20055;-74
2024/04/02 11:45:00;;;;;;;7.05;2.75;;;;;;;;;;6271229;28;20048;-74
2024/04/02 11:48:03;;;;;;;4.63;3.05;;;;;;;;;;6273737;28;20042;-72
2024/04/02 11:51:04;;;;;;;4.53;3.33;;;;;;;;;;6259623;28;20132;-73
2024/04/02 11:54:07;;;;;;;6.15;3.25;;;;;;;;;;6234243;28;20052;-73
2024/04/02 12:00:29;;;;;;;4.82;2.30;;;;;;;;;;6263282;28;20040;-74
2024/04/02 12:03:31;;;;;;;5.25;2.55;;;;;;;;;;6269228;28;20144;-74
2024/04/02 12:06:32;;;;;;;7.75;2.58;;;;;;;;;;6288137;28;20128;-74
2024/04/02 12:09:33;;;;;;;4.78;2.55;;;;;;;;;;6272570;28;20075;-74
2024/04/02 12:12:35;;;;;;;5.63;3.75;;;;;;;;;;6277109;28;20040;-74
2024/04/02 12:15:36;;;;;;;7.70;4.03;;;;;;;;;;6277219;28;20578;-74
2024/04/02 12:18:40;;;;;;;6.97;3.15;;;;;;;;;;6255593;28;20051;-74
2024/04/02 12:21:41;;;;;;;5.53;1.65;;;;;;;;;;6293768;28;20052;-74
2024/04/02 12:24:42;;;;;;;4.25;1.63;;;;;;;;;;6269178;28;20502;-75
2024/04/02 12:27:43;;;;;;;6.35;3.63;;;;;;;;;;6288474;28;20052;-74
2024/04/02 12:30:44;;;;;;;4.80;2.63;;;;;;;;;;6276270;28;20202;-74
2024/04/02 12:33:45;;;;;;;5.22;3.20;;;;;;;;;;6255523;28;20535;-74
2024/04/02 12:36:47;;;;;;;4.70;2.47;;;;;;;;;;6239771;28;20090;-74
2024/04/02 12:39:48;;;;;;;6.82;2.38;;;;;;;;;;6289878;28;20036;-73
2024/04/02 12:42:49;;;;;;;5.65;3.22;;;;;;;;;;6270902;28;20155;-74
2024/04/02 12:45:51;;;;;;;5.28;2.42;;;;;;;;;;6285068;28;20055;-74
2024/04/02 12:48:53;;;;;;;8.68;3.83;;;;;;;;;;6251610;28;20050;-74
2024/04/02 12:51:54;;;;;;;6.43;3.10;;;;;;;;;;6253813;28;20059;-74
2024/04/02 12:54:55;;;;;;;5.15;3.55;;;;;;;;;;6272077;28;20044;-74
2024/04/02 12:57:56;;;;;;;3.92;2.63;;;;;;;;;;6271206;28;20093;-75
2024/04/02 13:01:01;;;;;;;5.18;2.53;;;;;;;;;;6255375;28;20105;-74
2024/04/02 13:04:02;;;;;;;4.50;2.65;;;;;;;;;;6288489;28;20037;-74
2024/04/02 13:07:03;;;;;;;3.85;2.72;;;;;;;;;;6273167;28;20049;-74
2024/04/02 13:10:05;;;;;;;5.47;3.80;;;;;;;;;;6255307;28;20067;-74
2024/04/02 13:13:06;;;;;;;5.95;3.85;;;;;;;;;;6303922;28;20086;-74
2024/04/02 13:16:17;;;;;;;5.28;1.30;;;;;;;;;;6271994;28;20048;-74
2024/04/02 13:19:18;;;;;;;4.03;2.47;;;;;;;;;;6249675;28;20044;-75
2024/04/02 13:22:19;;;;;;;6.55;2.63;;;;;;;;;;6268945;28;20043;-74
2024/04/02 13:25:23;;;;;;;3.55;2.35;;;;;;;;;;6267889;28;20734;-74
2024/04/02 13:28:24;;;;;;;9.27;1.02;;;;;;;;;;6286405;28;20473;-74
2024/04/02 13:31:28;;;;;;;5.05;2.88;;;;;;;;;;6256345;28;20063;-73
2024/04/02 13:34:29;;;;;;;3.65;1.25;;;;;;;;;;6289997;28;20493;-74
2024/04/02 13:37:30;;;;;;;5.63;3.10;;;;;;;;;;6268896;28;20085;-74
2024/04/02 13:40:32;;;;;;;5.13;3.45;;;;;;;;;;6283323;28;20078;-73
2024/04/02 13:43:33;;;;;;;4.45;0.88;;;;;;;;;;6283644;28;20527;-73
2024/04/02 13:46:34;;;;;;;8.55;5.78;;;;;;;;;;6269710;28;20067;-73
2024/04/02 13:49:35;;;;;;;5.35;3.35;;;;;;;;;;6288011;28;20067;-73
2024/04/02 13:52:36;;;;;;;7.25;3.92;;;;;;;;;;6267669;28;20079;-73
2024/04/02 13:55:37;;;;;;;7.80;3.70;;;;;;;;;;6271239;28;20605;-73
2024/04/02 13:58:39;;;;;;;5.70;2.80;;;;;;;;;;6291556;28;20765;-73
2024/04/02 14:01:40;;;;;;;7.13;3.55;;;;;;;;;;6284498;28;20052;-73
2024/04/02 14:04:43;;;;;;;5.68;3.70;;;;;;;;;;6265932;28;20048;-73
2024/04/02 14:07:47;;;;;;;5.80;3.47;;;;;;;;;;6251792;28;20101;-74
2024/04/02 14:10:48;;;;;;;6.35;2.72;;;;;;;;;;6294701;28;20044;-74
2024/04/02 14:13:49;;;;;;;4.47;3.72;;;;;;;;;;6288335;28;20557;-74
2024/04/02 14:16:50;;;;;;;4.50;3.65;;;;;;;;;;6283195;28;20046;-72
2024/04/02 14:19:52;;;;;;;5.35;3.28;;;;;;;;;;6307497;28;20032;-74
2024/04/02 14:22:54;;;;;;;3.85;1.50;;;;;;;;;;6291115;28;20523;-74
2024/04/02 14:25:56;;;;;;;4.45;3.33;;;;;;;;;;6286617;28;20044;-74
2024/04/02 14:28:57;;;;;;;5.45;2.88;;;;;;;;;;6292815;28;20034;-74
2024/04/02 14:31:58;;;;;;;5.13;3.42;;;;;;;;;;6258052;28;20052;-76
2024/04/02 14:35:00;;;;;;;7.15;4.32;;;;;;;;;;6275199;28;20048;-74
2024/04/02 14:38:01;;;;;;;5.38;3.53;;;;;;;;;;6270995;28;20063;-73
2024/04/02 14:41:04;;;;;;;5.50;1.77;;;;;;;;;;6270544;28;20636;-74
2024/04/02 14:44:06;;;;;;;9.50;4.88;;;;;;;;;;6307164;28;20050;-74
2024/04/02 14:47:07;;;;;;;7.97;4.68;;;;;;;;;;6277096;28;20096;-74
2024/04/02 14:50:09;;;;;;;5.13;3.35;;;;;;;;;;6275109;28;20053;-73
2024/04/02 14:53:10;;;;;;;4.38;3.22;;;;;;;;;;6276260;28;20055;-72
2024/04/02 14:56:11;;;;;;;6.13;4.00;;;;;;;;;;6294348;28;20043;-73
2024/04/02 14:59:12;;;;;;;6.45;4.00;;;;;;;;;;6291911;28;20043;-73
2024/04/02 15:02:15;;;;;;;8.57;4.15;;;;;;;;;;6289806;28;20520;-73
2024/04/02 15:05:17;;;;;;;5.68;3.97;;;;;;;;;;6290831;28;20047;-73
2024/04/02 15:08:18;;;;;;;6.70;1.90;;;;;;;;;;6292139;28;20556;-73
2024/04/02 15:11:19;;;;;;;4.82;3.50;;;;;;;;;;6295288;28;20773;-73
2024/04/02 15:14:21;;;;;;;5.07;3.78;;;;;;;;;;6274276;28;20074;-73
2024/04/02 15:17:22;;;;;;;4.45;3.08;;;;;;;;;;6254898;28;20048;-74
2024/04/02 15:20:23;;;;;;;3.50;1.38;;;;;;;;;;6256785;28;20443;-74
2024/04/02 15:23:25;;;;;;;4.32;2.92;;;;;;;;;;6301595;28;20133;-74
2024/04/02 15:26:27;;;;;;;5.00;3.05;;;;;;;;;;6270805;28;20040;-74
2024/04/02 15:29:28;;;;;;;5.97;3.17;;;;;;;;;;6290467;28;20051;-73
2024/04/02 15:32:32;;;;;;;6.50;4.03;;;;;;;;;;6273368;28;20061;-73
2024/04/02 15:35:35;;;;;;;4.55;3.47;;;;;;;;;;6290267;28;20549;-74
2024/04/02 15:38:37;;;;;;;6.65;3.70;;;;;;;;;;6240444;28;20040;-74
2024/04/02 15:41:38;;;;;;;3.63;3.28;;;;;;;;;;6259925;28;20067;-74
2024/04/02 15:44:40;;;;;;;3.75;1.48;;;;;;;;;;6292384;28;20505;-74
2024/04/02 15:47:42;;;;;;;4.13;2.78;;;;;;;;;;6278043;28;20056;-74
2024/04/02 15:50:43;;;;;;;6.68;3.90;;;;;;;;;;6306589;28;20067;-74
2024/04/02 15:53:48;;;;;;;8.60;4.05;;;;;;;;;;6282005;28;20179;-74
2024/04/02 15:56:51;;;;;;;5.18;3.55;;;;;;;;;;6271627;28;20044;-74
2024/04/02 15:59:53;;;;;;;5.57;3.63;;;;;;;;;;6286973;28;20929;-74
2024/04/02 16:02:54;;;;;;;6.25;4.75;;;;;;;;;;6275242;28;20113;-74
2024/04/02 16:06:06;;;;;;;4.68;3.47;;;;;;;;;;6270515;28;20107;-73
2024/04/02 16:09:07;;;;;;;4.72;3.30;;;;;;;;;;6273783;28;20032;-74
2024/04/02 16:12:08;;;;;;;5.03;3.60;;;;;;;;;;6274211;28;20044;-74
2024/04/02 16:15:09;;;;;;;4.93;3.22;;;;;;;;;;6270423;28;20040;-74
2024/04/02 16:18:10;;;;;;;6.18;3.28;;;;;;;;;;6289237;28;20078;-73
2024/04/02 16:21:15;;;;;;;4.78;3.55;;;;;;;;;;6275746;28;20113;-73
2024/04/02 16:24:20;;;;;;;6.28;3.70;;;;;;;;;;6293129;28;20058;-74
2024/04/02 16:27:21;;;;;;;;;;;;;;;;;;6304595;28;20068;-73
2024/04/02 16:30:23;;;;;;;2.63;0.82;;;;;;;;;;6274432;28;19961;-73
2024/04/02 16:33:24;;;;;;;4.10;3.50;;;;;;;;;;6303944;28;20113;-72
2024/04/02 16:36:25;;;;;;;3.42;2.70;;;;;;;;;;6301582;28;20048;-74
2024/04/02 16:39:27;;;;;;;3.60;2.72;;;;;;;;;;6276138;28;20051;-74
2024/04/02 16:42:28;;;;;;;2.88;2.67;;;;;;;;;;6274237;28;20063;-73
2024/04/02 16:45:34;;;;;;;4.78;2.90;;;;;;;;;;6290410;28;20040;-73
2024/04/02 16:48:35;;;;;;;5.97;2.80;;;;;;;;;;6289732;28;20063;-75
2024/04/02 16:51:37;;;;;;;5.47;2.15;;;;;;;;;;6272963;28;20752;-74
2024/04/02 16:54:38;;;;;;;4.35;2.70;;;;;;;;;;6288353;28;20048;-75
2024/04/02 16:57:40;;;;;;;3.72;2.85;;;;;;;;;;6257026;28;20657;-76
2024/04/02 17:00:42;;;;;;;4.82;3.45;;;;;;;;;;6289052;28;20060;-74
2024/04/02 17:03:43;;;;;;;3.13;2.78;;;;;;;;;;6289014;28;20036;-74
2024/04/02 17:06:44;;;;;;;4.25;2.10;;;;;;;;;;6271047;28;20517;-74
2024/04/02 17:09:48;;;;;;;3.60;2.97;;;;;;;;;;6271880;28;20044;-74
2024/04/02 17:12:49;;;;;;;;;;;;;;;;;;6256192;28;20067;-74
2024/04/02 17:15:58;;;;;;;9.23;5.25;;;;;;;;;;6239982;28;19951;-74
2024/04/02 17:19:00;;;;;;;8.35;5.85;;;;;;;;;;6292704;28;20154;-73
2024/04/02 17:22:01;;;;;;;2.45;1.27;;;;;;;;;;6288611;28;20498;-73
2024/04/02 17:25:03;;;;;;;5.30;1.70;;;;;;;;;;6290077;28;20483;-73
2024/04/02 17:28:04;;;;;;;6.63;1.23;;;;;;;;;;6266826;28;20875;-74
2024/04/02 17:31:05;;;;;;;5.60;3.33;;;;;;;;;;6291322;28;20048;-75
2024/04/02 17:34:07;;;;;;;5.78;4.13;;;;;;;;;;6271255;28;20051;-73
2024/04/02 17:37:09;;;;;;;8.70;3.13;;;;;;;;;;6280406;28;20117;-73
2024/04/02 17:40:10;;;;;;;4.20;3.15;;;;;;;;;;6290918;28;20514;-73
2024/04/02 17:43:15;;;;;;;4.13;1.13;;;;;;;;;;6270655;28;20044;-73
2024/04/02 17:46:16;;;;;;;4.10;3.80;;;;;;;;;;6292276;28;20048;-74
2024/04/02 17:49:17;;;;;;;3.92;3.50;;;;;;;;;;6274732;28;20073;-75
2024/04/02 17:52:19;;;;;;;7.15;6.03;;;;;;;;;;6291276;28;20040;-74
2024/04/02 17:55:21;;;;;;;3.45;3.15;;;;;;;;;;6275572;28;20047;-74
2024/04/02 17:58:22;;;;;;;3.83;3.30;;;;;;;;;;6306998;28;20040;-74
2024/04/02 18:01:23;;;;;;;4.95;2.92;;;;;;;;;;6293305;28;20549;-74
2024/04/02 18:04:25;;;;;;;5.60;5.10;;;;;;;;;;6274689;28;20587;-74
2024/04/02 18:07:26;;;;;;;6.72;3.20;;;;;;;;;;6275722;28;20097;-74